sensor_id;sensor_type;location;lat;lon;timestamp;P1;durP1;ratioP1;P2;durP2;ratioP2
36497;SDS011;22513;51.222;6.480;2023-11-22T00:00:54;0.80;;;0.80;;
36497;SDS011;22513;51.222;6.480;2023-11-22T00:03:20;0.95;;;0.93;;
36497;SDS011;22513;51.222;6.480;2023-11-22T00:05:46;0.80;;;0.80;;
36497;SDS011;22513;51.222;6.480;2023-11-22T00:08:12;0.90;;;0.90;;
36497;SDS011;22513;51.222;6.480;2023-11-22T00:10:37;0.55;;;0.55;;
36497;SDS011;22513;51.222;6.480;2023-11-22T00:13:04;1.17;;;0.70;;
36497;SDS011;22513;51.222;6.480;2023-11-22T00:15:30;0.75;;;0.75;;
36497;SDS011;22513;51.222;6.480;2023-11-22T00:17:55;0.70;;;0.70;;
36497;SDS011;22513;51.222;6.480;2023-11-22T00:20:23;0.80;;;0.80;;
36497;SDS011;22513;51.222;6.480;2023-11-22T00:22:48;0.90;;;0.90;;
36497;SDS011;22513;51.222;6.480;2023-11-22T00:25:15;1.52;;;0.65;;
36497;SDS011;22513;51.222;6.480;2023-11-22T00:27:40;0.80;;;0.80;;
36497;SDS011;22513;51.222;6.480;2023-11-22T00:30:07;0.80;;;0.80;;
36497;SDS011;22513;51.222;6.480;2023-11-22T00:32:33;0.80;;;0.80;;
36497;SDS011;22513;51.222;6.480;2023-11-22T00:34:58;0.75;;;0.75;;
36497;SDS011;22513;51.222;6.480;2023-11-22T00:37:24;0.85;;;0.85;;
36497;SDS011;22513;51.222;6.480;2023-11-22T00:39:49;0.88;;;0.88;;
36497;SDS011;22513;51.222;6.480;2023-11-22T00:42:16;1.33;;;0.90;;
36497;SDS011;22513;51.222;6.480;2023-11-22T00:44:45;0.85;;;0.85;;
36497;SDS011;22513;51.222;6.480;2023-11-22T00:47:12;0.70;;;0.70;;
36497;SDS011;22513;51.222;6.480;2023-11-22T00:49:37;1.05;;;1.00;;
36497;SDS011;22513;51.222;6.480;2023-11-22T00:52:06;0.90;;;0.90;;
36497;SDS011;22513;51.222;6.480;2023-11-22T00:54:32;0.93;;;0.90;;
36497;SDS011;22513;51.222;6.480;2023-11-22T00:56:57;1.08;;;0.98;;
36497;SDS011;22513;51.222;6.480;2023-11-22T00:59:23;0.80;;;0.80;;
36497;SDS011;22513;51.222;6.480;2023-11-22T01:01:48;0.80;;;0.80;;
36497;SDS011;22513;51.222;6.480;2023-11-22T01:04:14;0.80;;;0.80;;
36497;SDS011;22513;51.222;6.480;2023-11-22T01:06:40;0.77;;;0.70;;
36497;SDS011;22513;51.222;6.480;2023-11-22T01:09:05;0.85;;;0.85;;
36497;SDS011;22513;51.222;6.480;2023-11-22T01:11:33;0.80;;;0.77;;
36497;SDS011;22513;51.222;6.480;2023-11-22T01:13:59;0.70;;;0.70;;
36497;SDS011;22513;51.222;6.480;2023-11-22T01:16:25;0.88;;;0.88;;
36497;SDS011;22513;51.222;6.480;2023-11-22T01:18:51;0.63;;;0.63;;
36497;SDS011;22513;51.222;6.480;2023-11-22T01:21:18;0.90;;;0.90;;
36497;SDS011;22513;51.222;6.480;2023-11-22T01:23:44;0.95;;;0.90;;
36497;SDS011;22513;51.222;6.480;2023-11-22T01:26:10;0.70;;;0.70;;
36497;SDS011;22513;51.222;6.480;2023-11-22T01:28:37;0.85;;;0.85;;
36497;SDS011;22513;51.222;6.480;2023-11-22T01:31:05;0.80;;;0.80;;
36497;SDS011;22513;51.222;6.480;2023-11-22T01:33:30;0.77;;;0.77;;
36497;SDS011;22513;51.222;6.480;2023-11-22T01:35:57;0.80;;;0.80;;
36497;SDS011;22513;51.222;6.480;2023-11-22T01:38:23;0.70;;;0.70;;
36497;SDS011;22513;51.222;6.480;2023-11-22T01:40:51;0.80;;;0.80;;
36497;SDS011;22513;51.222;6.480;2023-11-22T01:43:17;0.95;;;0.88;;
36497;SDS011;22513;51.222;6.480;2023-11-22T01:45:44;0.77;;;0.77;;
36497;SDS011;22513;51.222;6.480;2023-11-22T01:48:10;0.75;;;0.75;;
36497;SDS011;22513;51.222;6.480;2023-11-22T01:50:37;0.70;;;0.70;;
36497;SDS011;22513;51.222;6.480;2023-11-22T01:53:06;0.75;;;0.75;;
36497;SDS011;22513;51.222;6.480;2023-11-22T01:55:34;0.95;;;0.85;;
36497;SDS011;22513;51.222;6.480;2023-11-22T01:58:00;0.70;;;0.70;;
36497;SDS011;22513;51.222;6.480;2023-11-22T02:00:36;0.80;;;0.80;;
36497;SDS011;22513;51.222;6.480;2023-11-22T02:03:10;0.90;;;0.90;;
36497;SDS011;22513;51.222;6.480;2023-11-22T02:05:39;1.00;;;0.90;;
36497;SDS011;22513;51.222;6.480;2023-11-22T02:08:09;0.82;;;0.82;;
36497;SDS011;22513;51.222;6.480;2023-11-22T02:10:35;0.93;;;0.93;;
36497;SDS011;22513;51.222;6.480;2023-11-22T02:13:02;0.90;;;0.90;;
36497;SDS011;22513;51.222;6.480;2023-11-22T02:15:37;0.80;;;0.80;;
36497;SDS011;22513;51.222;6.480;2023-11-22T02:18:03;1.10;;;1.00;;
36497;SDS011;22513;51.222;6.480;2023-11-22T02:20:30;0.80;;;0.80;;
36497;SDS011;22513;51.222;6.480;2023-11-22T02:22:56;0.82;;;0.82;;
36497;SDS011;22513;51.222;6.480;2023-11-22T02:25:22;0.70;;;0.70;;
36497;SDS011;22513;51.222;6.480;2023-11-22T02:27:47;0.82;;;0.82;;
36497;SDS011;22513;51.222;6.480;2023-11-22T02:30:13;0.80;;;0.80;;
36497;SDS011;22513;51.222;6.480;2023-11-22T02:32:40;0.70;;;0.70;;
36497;SDS011;22513;51.222;6.480;2023-11-22T02:35:06;0.80;;;0.80;;
36497;SDS011;22513;51.222;6.480;2023-11-22T02:37:33;0.80;;;0.80;;
36497;SDS011;22513;51.222;6.480;2023-11-22T02:40:02;1.20;;;1.00;;
36497;SDS011;22513;51.222;6.480;2023-11-22T02:42:33;0.80;;;0.80;;
36497;SDS011;22513;51.222;6.480;2023-11-22T02:44:59;0.63;;;0.63;;
36497;SDS011;22513;51.222;6.480;2023-11-22T02:47:25;0.85;;;0.85;;
36497;SDS011;22513;51.222;6.480;2023-11-22T02:49:50;0.70;;;0.70;;
36497;SDS011;22513;51.222;6.480;2023-11-22T02:52:16;0.80;;;0.80;;
36497;SDS011;22513;51.222;6.480;2023-11-22T02:54:45;1.20;;;1.00;;
36497;SDS011;22513;51.222;6.480;2023-11-22T02:57:11;0.87;;;0.87;;
36497;SDS011;22513;51.222;6.480;2023-11-22T02:59:37;0.95;;;0.88;;
36497;SDS011;22513;51.222;6.480;2023-11-22T03:02:06;1.10;;;1.00;;
36497;SDS011;22513;51.222;6.480;2023-11-22T03:04:32;0.80;;;0.80;;
36497;SDS011;22513;51.222;6.480;2023-11-22T03:06:59;0.80;;;0.80;;
36497;SDS011;22513;51.222;6.480;2023-11-22T03:09:25;0.90;;;0.80;;
36497;SDS011;22513;51.222;6.480;2023-11-22T03:11:51;1.10;;;1.00;;
36497;SDS011;22513;51.222;6.480;2023-11-22T03:14:20;0.90;;;0.90;;
36497;SDS011;22513;51.222;6.480;2023-11-22T03:16:46;0.70;;;0.70;;
36497;SDS011;22513;51.222;6.480;2023-11-22T03:19:13;0.70;;;0.70;;
36497;SDS011;22513;51.222;6.480;2023-11-22T03:21:39;0.90;;;0.75;;
36497;SDS011;22513;51.222;6.480;2023-11-22T03:24:06;0.80;;;0.80;;
36497;SDS011;22513;51.222;6.480;2023-11-22T03:26:33;0.68;;;0.68;;
36497;SDS011;22513;51.222;6.480;2023-11-22T03:28:59;1.08;;;1.08;;
36497;SDS011;22513;51.222;6.480;2023-11-22T03:31:25;0.70;;;0.70;;
36497;SDS011;22513;51.222;6.480;2023-11-22T03:33:51;0.70;;;0.70;;
36497;SDS011;22513;51.222;6.480;2023-11-22T03:36:17;0.85;;;0.85;;
36497;SDS011;22513;51.222;6.480;2023-11-22T03:38:43;0.80;;;0.80;;
36497;SDS011;22513;51.222;6.480;2023-11-22T03:41:09;0.80;;;0.80;;
36497;SDS011;22513;51.222;6.480;2023-11-22T03:43:35;0.65;;;0.65;;
36497;SDS011;22513;51.222;6.480;2023-11-22T03:46:01;0.73;;;0.73;;
36497;SDS011;22513;51.222;6.480;2023-11-22T03:48:27;0.80;;;0.80;;
36497;SDS011;22513;51.222;6.480;2023-11-22T03:50:53;0.70;;;0.70;;
36497;SDS011;22513;51.222;6.480;2023-11-22T03:53:19;0.60;;;0.60;;
36497;SDS011;22513;51.222;6.480;2023-11-22T03:55:46;0.70;;;0.70;;
36497;SDS011;22513;51.222;6.480;2023-11-22T03:58:12;0.73;;;0.73;;
36497;SDS011;22513;51.222;6.480;2023-11-22T04:00:38;0.80;;;0.80;;
36497;SDS011;22513;51.222;6.480;2023-11-22T04:03:03;0.80;;;0.80;;
36497;SDS011;22513;51.222;6.480;2023-11-22T04:05:29;0.80;;;0.80;;
36497;SDS011;22513;51.222;6.480;2023-11-22T04:07:55;0.88;;;0.88;;
36497;SDS011;22513;51.222;6.480;2023-11-22T04:10:21;0.70;;;0.70;;
36497;SDS011;22513;51.222;6.480;2023-11-22T04:12:47;0.90;;;0.90;;
36497;SDS011;22513;51.222;6.480;2023-11-22T04:15:14;0.60;;;0.60;;
36497;SDS011;22513;51.222;6.480;2023-11-22T04:17:40;0.70;;;0.70;;
36497;SDS011;22513;51.222;6.480;2023-11-22T04:20:06;1.00;;;0.90;;
36497;SDS011;22513;51.222;6.480;2023-11-22T04:22:40;1.02;;;0.93;;
36497;SDS011;22513;51.222;6.480;2023-11-22T04:25:06;0.80;;;0.80;;
36497;SDS011;22513;51.222;6.480;2023-11-22T04:27:33;0.73;;;0.73;;
36497;SDS011;22513;51.222;6.480;2023-11-22T04:29:59;1.02;;;0.90;;
36497;SDS011;22513;51.222;6.480;2023-11-22T04:32:25;0.90;;;0.90;;
36497;SDS011;22513;51.222;6.480;2023-11-22T04:34:50;1.00;;;0.90;;
36497;SDS011;22513;51.222;6.480;2023-11-22T04:37:16;0.77;;;0.77;;
36497;SDS011;22513;51.222;6.480;2023-11-22T04:39:42;0.80;;;0.70;;
36497;SDS011;22513;51.222;6.480;2023-11-22T04:42:07;0.93;;;0.90;;
36497;SDS011;22513;51.222;6.480;2023-11-22T04:44:33;0.70;;;0.70;;
36497;SDS011;22513;51.222;6.480;2023-11-22T04:46:58;0.95;;;0.80;;
36497;SDS011;22513;51.222;6.480;2023-11-22T04:49:24;0.90;;;0.90;;
36497;SDS011;22513;51.222;6.480;2023-11-22T04:51:50;0.68;;;0.68;;
36497;SDS011;22513;51.222;6.480;2023-11-22T04:54:16;0.63;;;0.63;;
36497;SDS011;22513;51.222;6.480;2023-11-22T04:56:42;0.70;;;0.70;;
36497;SDS011;22513;51.222;6.480;2023-11-22T04:59:08;0.70;;;0.70;;
36497;SDS011;22513;51.222;6.480;2023-11-22T05:01:33;0.90;;;0.77;;
36497;SDS011;22513;51.222;6.480;2023-11-22T05:03:59;0.77;;;0.70;;
36497;SDS011;22513;51.222;6.480;2023-11-22T05:06:25;0.80;;;0.80;;
36497;SDS011;22513;51.222;6.480;2023-11-22T05:08:52;0.85;;;0.85;;
36497;SDS011;22513;51.222;6.480;2023-11-22T05:11:18;0.73;;;0.73;;
36497;SDS011;22513;51.222;6.480;2023-11-22T05:13:43;0.70;;;0.70;;
36497;SDS011;22513;51.222;6.480;2023-11-22T05:16:09;0.90;;;0.90;;
36497;SDS011;22513;51.222;6.480;2023-11-22T05:18:35;0.90;;;0.90;;
36497;SDS011;22513;51.222;6.480;2023-11-22T05:21:01;0.90;;;0.90;;
36497;SDS011;22513;51.222;6.480;2023-11-22T05:23:28;1.15;;;1.05;;
36497;SDS011;22513;51.222;6.480;2023-11-22T05:25:54;0.68;;;0.68;;
36497;SDS011;22513;51.222;6.480;2023-11-22T05:28:21;0.80;;;0.80;;
36497;SDS011;22513;51.222;6.480;2023-11-22T05:30:47;0.85;;;0.85;;
36497;SDS011;22513;51.222;6.480;2023-11-22T05:33:13;0.70;;;0.70;;
36497;SDS011;22513;51.222;6.480;2023-11-22T05:35:38;0.88;;;0.88;;
36497;SDS011;22513;51.222;6.480;2023-11-22T05:38:06;0.70;;;0.70;;
36497;SDS011;22513;51.222;6.480;2023-11-22T05:40:32;0.60;;;0.60;;
36497;SDS011;22513;51.222;6.480;2023-11-22T05:42:58;0.70;;;0.70;;
36497;SDS011;22513;51.222;6.480;2023-11-22T05:45:23;0.70;;;0.70;;
36497;SDS011;22513;51.222;6.480;2023-11-22T05:47:50;0.60;;;0.60;;
36497;SDS011;22513;51.222;6.480;2023-11-22T05:50:16;0.60;;;0.60;;
36497;SDS011;22513;51.222;6.480;2023-11-22T05:52:42;0.70;;;0.70;;
36497;SDS011;22513;51.222;6.480;2023-11-22T05:55:09;0.70;;;0.70;;
36497;SDS011;22513;51.222;6.480;2023-11-22T05:57:35;0.57;;;0.57;;
36497;SDS011;22513;51.222;6.480;2023-11-22T06:00:01;0.50;;;0.50;;
36497;SDS011;22513;51.222;6.480;2023-11-22T06:02:27;0.50;;;0.50;;
36497;SDS011;22513;51.222;6.480;2023-11-22T06:04:53;0.55;;;0.55;;
36497;SDS011;22513;51.222;6.480;2023-11-22T06:07:18;0.60;;;0.60;;
36497;SDS011;22513;51.222;6.480;2023-11-22T06:09:44;0.60;;;0.60;;
36497;SDS011;22513;51.222;6.480;2023-11-22T06:12:10;0.70;;;0.70;;
36497;SDS011;22513;51.222;6.480;2023-11-22T06:14:35;0.70;;;0.70;;
36497;SDS011;22513;51.222;6.480;2023-11-22T06:17:01;0.50;;;0.50;;
36497;SDS011;22513;51.222;6.480;2023-11-22T06:19:28;0.50;;;0.50;;
36497;SDS011;22513;51.222;6.480;2023-11-22T06:21:53;0.50;;;0.50;;
36497;SDS011;22513;51.222;6.480;2023-11-22T06:24:19;0.57;;;0.57;;
36497;SDS011;22513;51.222;6.480;2023-11-22T06:26:45;0.50;;;0.50;;
36497;SDS011;22513;51.222;6.480;2023-11-22T06:31:40;0.60;;;0.60;;
36497;SDS011;22513;51.222;6.480;2023-11-22T06:34:05;0.70;;;0.70;;
36497;SDS011;22513;51.222;6.480;2023-11-22T06:36:31;0.70;;;0.70;;
36497;SDS011;22513;51.222;6.480;2023-11-22T06:38:57;0.60;;;0.60;;
36497;SDS011;22513;51.222;6.480;2023-11-22T06:41:24;0.60;;;0.60;;
36497;SDS011;22513;51.222;6.480;2023-11-22T06:43:49;0.73;;;0.73;;
36497;SDS011;22513;51.222;6.480;2023-11-22T06:46:15;0.50;;;0.50;;
36497;SDS011;22513;51.222;6.480;2023-11-22T06:48:44;0.60;;;0.60;;
36497;SDS011;22513;51.222;6.480;2023-11-22T06:51:09;0.63;;;0.63;;
36497;SDS011;22513;51.222;6.480;2023-11-22T06:53:35;0.75;;;0.75;;
36497;SDS011;22513;51.222;6.480;2023-11-22T06:56:01;0.70;;;0.70;;
36497;SDS011;22513;51.222;6.480;2023-11-22T06:58:28;0.60;;;0.60;;
36497;SDS011;22513;51.222;6.480;2023-11-22T07:00:53;0.75;;;0.65;;
36497;SDS011;22513;51.222;6.480;2023-11-22T07:03:20;0.60;;;0.60;;
36497;SDS011;22513;51.222;6.480;2023-11-22T07:05:46;0.70;;;0.70;;
36497;SDS011;22513;51.222;6.480;2023-11-22T07:08:12;0.60;;;0.60;;
36497;SDS011;22513;51.222;6.480;2023-11-22T07:10:37;0.73;;;0.73;;
36497;SDS011;22513;51.222;6.480;2023-11-22T07:13:04;0.60;;;0.60;;
36497;SDS011;22513;51.222;6.480;2023-11-22T07:15:30;0.70;;;0.70;;
36497;SDS011;22513;51.222;6.480;2023-11-22T07:17:55;0.57;;;0.57;;
36497;SDS011;22513;51.222;6.480;2023-11-22T07:20:21;0.75;;;0.75;;
36497;SDS011;22513;51.222;6.480;2023-11-22T07:22:48;0.70;;;0.70;;
36497;SDS011;22513;51.222;6.480;2023-11-22T07:25:20;0.57;;;0.57;;
36497;SDS011;22513;51.222;6.480;2023-11-22T07:27:50;0.55;;;0.55;;
36497;SDS011;22513;51.222;6.480;2023-11-22T07:30:16;0.70;;;0.70;;
36497;SDS011;22513;51.222;6.480;2023-11-22T07:32:45;0.70;;;0.70;;
36497;SDS011;22513;51.222;6.480;2023-11-22T07:35:11;0.68;;;0.68;;
36497;SDS011;22513;51.222;6.480;2023-11-22T07:37:37;0.70;;;0.70;;
36497;SDS011;22513;51.222;6.480;2023-11-22T07:40:09;4.10;;;0.82;;
36497;SDS011;22513;51.222;6.480;2023-11-22T07:42:38;1.20;;;1.10;;
36497;SDS011;22513;51.222;6.480;2023-11-22T07:45:04;2.30;;;0.85;;
36497;SDS011;22513;51.222;6.480;2023-11-22T07:47:30;0.90;;;0.90;;
36497;SDS011;22513;51.222;6.480;2023-11-22T07:49:56;0.65;;;0.65;;
36497;SDS011;22513;51.222;6.480;2023-11-22T07:52:23;1.65;;;1.00;;
36497;SDS011;22513;51.222;6.480;2023-11-22T07:54:57;0.82;;;0.80;;
36497;SDS011;22513;51.222;6.480;2023-11-22T07:59:50;217.68;;;29.02;;
36497;SDS011;22513;51.222;6.480;2023-11-22T08:04:45;183.15;;;24.38;;
36497;SDS011;22513;51.222;6.480;2023-11-22T08:07:13;100.45;;;18.75;;
36497;SDS011;22513;51.222;6.480;2023-11-22T08:09:39;16.02;;;3.38;;
36497;SDS011;22513;51.222;6.480;2023-11-22T08:12:08;1.52;;;1.42;;
36497;SDS011;22513;51.222;6.480;2023-11-22T08:14:36;1.67;;;1.38;;
36497;SDS011;22513;51.222;6.480;2023-11-22T08:17:02;0.90;;;0.90;;
36497;SDS011;22513;51.222;6.480;2023-11-22T08:24:24;0.95;;;0.80;;
36497;SDS011;22513;51.222;6.480;2023-11-22T08:26:50;0.60;;;0.60;;
36497;SDS011;22513;51.222;6.480;2023-11-22T08:29:15;0.80;;;0.80;;
36497;SDS011;22513;51.222;6.480;2023-11-22T08:31:41;0.80;;;0.80;;
36497;SDS011;22513;51.222;6.480;2023-11-22T08:34:06;0.80;;;0.70;;
36497;SDS011;22513;51.222;6.480;2023-11-22T08:36:32;0.93;;;0.73;;
36497;SDS011;22513;51.222;6.480;2023-11-22T08:39:04;0.73;;;0.73;;
36497;SDS011;22513;51.222;6.480;2023-11-22T08:41:30;0.63;;;0.63;;
36497;SDS011;22513;51.222;6.480;2023-11-22T08:43:57;0.75;;;0.75;;
36497;SDS011;22513;51.222;6.480;2023-11-22T08:46:23;0.70;;;0.70;;
36497;SDS011;22513;51.222;6.480;2023-11-22T08:48:49;0.70;;;0.70;;
36497;SDS011;22513;51.222;6.480;2023-11-22T08:51:16;0.70;;;0.70;;
36497;SDS011;22513;51.222;6.480;2023-11-22T08:53:42;0.88;;;0.85;;
36497;SDS011;22513;51.222;6.480;2023-11-22T08:56:09;0.60;;;0.60;;
36497;SDS011;22513;51.222;6.480;2023-11-22T08:58:36;0.65;;;0.65;;
36497;SDS011;22513;51.222;6.480;2023-11-22T09:01:03;1.17;;;0.40;;
36497;SDS011;22513;51.222;6.480;2023-11-22T09:03:30;0.50;;;0.50;;
36497;SDS011;22513;51.222;6.480;2023-11-22T09:05:56;0.60;;;0.60;;
36497;SDS011;22513;51.222;6.480;2023-11-22T09:08:22;0.60;;;0.60;;
36497;SDS011;22513;51.222;6.480;2023-11-22T09:10:48;0.50;;;0.50;;
36497;SDS011;22513;51.222;6.480;2023-11-22T09:13:15;0.50;;;0.50;;
36497;SDS011;22513;51.222;6.480;2023-11-22T09:15:42;0.50;;;0.50;;
36497;SDS011;22513;51.222;6.480;2023-11-22T09:18:09;0.60;;;0.60;;
36497;SDS011;22513;51.222;6.480;2023-11-22T09:20:35;0.65;;;0.65;;
36497;SDS011;22513;51.222;6.480;2023-11-22T09:23:01;0.50;;;0.50;;
36497;SDS011;22513;51.222;6.480;2023-11-22T09:25:27;0.50;;;0.50;;
36497;SDS011;22513;51.222;6.480;2023-11-22T09:27:53;0.40;;;0.40;;
36497;SDS011;22513;51.222;6.480;2023-11-22T09:30:24;0.68;;;0.68;;
36497;SDS011;22513;51.222;6.480;2023-11-22T09:33:21;0.50;;;0.50;;
36497;SDS011;22513;51.222;6.480;2023-11-22T09:35:46;0.70;;;0.70;;
36497;SDS011;22513;51.222;6.480;2023-11-22T09:38:12;0.80;;;0.80;;
36497;SDS011;22513;51.222;6.480;2023-11-22T09:40:41;0.60;;;0.60;;
36497;SDS011;22513;51.222;6.480;2023-11-22T09:43:08;0.50;;;0.50;;
36497;SDS011;22513;51.222;6.480;2023-11-22T09:45:34;0.70;;;0.70;;
36497;SDS011;22513;51.222;6.480;2023-11-22T09:48:01;0.50;;;0.50;;
36497;SDS011;22513;51.222;6.480;2023-11-22T09:53:33;0.65;;;0.65;;
36497;SDS011;22513;51.222;6.480;2023-11-22T09:56:08;0.60;;;0.60;;
36497;SDS011;22513;51.222;6.480;2023-11-22T09:58:39;1.15;;;0.85;;
36497;SDS011;22513;51.222;6.480;2023-11-22T10:01:12;0.60;;;0.60;;
36497;SDS011;22513;51.222;6.480;2023-11-22T10:03:38;0.50;;;0.50;;
36497;SDS011;22513;51.222;6.480;2023-11-22T10:06:05;0.60;;;0.60;;
36497;SDS011;22513;51.222;6.480;2023-11-22T10:08:31;0.60;;;0.60;;
36497;SDS011;22513;51.222;6.480;2023-11-22T10:10:57;0.80;;;0.80;;
36497;SDS011;22513;51.222;6.480;2023-11-22T10:13:24;0.60;;;0.60;;
36497;SDS011;22513;51.222;6.480;2023-11-22T10:15:51;0.60;;;0.60;;
36497;SDS011;22513;51.222;6.480;2023-11-22T10:18:18;0.60;;;0.60;;
36497;SDS011;22513;51.222;6.480;2023-11-22T10:20:45;0.60;;;0.60;;
36497;SDS011;22513;51.222;6.480;2023-11-22T10:23:18;0.60;;;0.60;;
36497;SDS011;22513;51.222;6.480;2023-11-22T10:25:51;0.80;;;0.80;;
36497;SDS011;22513;51.222;6.480;2023-11-22T10:28:21;1.00;;;0.70;;
36497;SDS011;22513;51.222;6.480;2023-11-22T10:30:50;1.10;;;1.00;;
36497;SDS011;22513;51.222;6.480;2023-11-22T10:33:16;1.08;;;1.00;;
36497;SDS011;22513;51.222;6.480;2023-11-22T10:35:48;1.20;;;1.10;;
36497;SDS011;22513;51.222;6.480;2023-11-22T10:38:15;1.20;;;1.00;;
36497;SDS011;22513;51.222;6.480;2023-11-22T10:40:41;0.95;;;0.90;;
36497;SDS011;22513;51.222;6.480;2023-11-22T10:43:09;1.60;;;1.00;;
36497;SDS011;22513;51.222;6.480;2023-11-22T10:45:37;1.27;;;1.15;;
36497;SDS011;22513;51.222;6.480;2023-11-22T10:48:04;0.85;;;0.85;;
36497;SDS011;22513;51.222;6.480;2023-11-22T10:50:31;1.00;;;0.90;;
36497;SDS011;22513;51.222;6.480;2023-11-22T10:52:57;1.17;;;1.08;;
36497;SDS011;22513;51.222;6.480;2023-11-22T10:55:29;1.05;;;0.95;;
36497;SDS011;22513;51.222;6.480;2023-11-22T10:58:02;1.00;;;1.00;;
36497;SDS011;22513;51.222;6.480;2023-11-22T11:00:31;1.20;;;1.02;;
36497;SDS011;22513;51.222;6.480;2023-11-22T11:03:07;1.13;;;1.08;;
36497;SDS011;22513;51.222;6.480;2023-11-22T11:05:38;7.80;;;1.13;;
36497;SDS011;22513;51.222;6.480;2023-11-22T11:08:11;1.00;;;1.00;;
36497;SDS011;22513;51.222;6.480;2023-11-22T11:10:41;1.17;;;1.08;;
36497;SDS011;22513;51.222;6.480;2023-11-22T11:15:37;1.40;;;1.00;;
36497;SDS011;22513;51.222;6.480;2023-11-22T11:18:05;0.93;;;0.88;;
36497;SDS011;22513;51.222;6.480;2023-11-22T11:20:48;1.20;;;1.10;;
36497;SDS011;22513;51.222;6.480;2023-11-22T11:23:19;1.13;;;1.02;;
36497;SDS011;22513;51.222;6.480;2023-11-22T11:25:48;1.52;;;1.10;;
36497;SDS011;22513;51.222;6.480;2023-11-22T11:28:24;1.33;;;1.02;;
36497;SDS011;22513;51.222;6.480;2023-11-22T11:30:53;1.08;;;1.00;;
36497;SDS011;22513;51.222;6.480;2023-11-22T11:33:35;1.35;;;0.95;;
36497;SDS011;22513;51.222;6.480;2023-11-22T11:36:25;1.88;;;1.30;;
36497;SDS011;22513;51.222;6.480;2023-11-22T11:38:57;2.00;;;1.35;;
36497;SDS011;22513;51.222;6.480;2023-11-22T11:41:28;1.42;;;1.27;;
36497;SDS011;22513;51.222;6.480;2023-11-22T11:43:57;1.25;;;1.15;;
36497;SDS011;22513;51.222;6.480;2023-11-22T11:46:23;1.85;;;1.38;;
36497;SDS011;22513;51.222;6.480;2023-11-22T11:48:51;1.58;;;1.30;;
36497;SDS011;22513;51.222;6.480;2023-11-22T11:51:18;1.77;;;1.30;;
36497;SDS011;22513;51.222;6.480;2023-11-22T11:53:48;1.20;;;1.10;;
36497;SDS011;22513;51.222;6.480;2023-11-22T11:56:14;1.20;;;1.10;;
36497;SDS011;22513;51.222;6.480;2023-11-22T11:58:41;1.00;;;0.90;;
36497;SDS011;22513;51.222;6.480;2023-11-22T12:01:08;1.30;;;1.20;;
36497;SDS011;22513;51.222;6.480;2023-11-22T12:03:37;1.30;;;1.20;;
36497;SDS011;22513;51.222;6.480;2023-11-22T12:06:04;1.35;;;1.00;;
36497;SDS011;22513;51.222;6.480;2023-11-22T12:11:04;1.42;;;1.10;;
36497;SDS011;22513;51.222;6.480;2023-11-22T12:13:33;1.20;;;1.10;;
36497;SDS011;22513;51.222;6.480;2023-11-22T12:16:00;1.27;;;1.10;;
36497;SDS011;22513;51.222;6.480;2023-11-22T12:18:28;1.58;;;0.93;;
36497;SDS011;22513;51.222;6.480;2023-11-22T12:20:57;0.93;;;0.93;;
36497;SDS011;22513;51.222;6.480;2023-11-22T12:23:24;0.98;;;0.98;;
36497;SDS011;22513;51.222;6.480;2023-11-22T12:25:58;0.75;;;0.75;;
36497;SDS011;22513;51.222;6.480;2023-11-22T12:28:26;1.33;;;0.98;;
36497;SDS011;22513;51.222;6.480;2023-11-22T12:30:52;1.00;;;0.80;;
36497;SDS011;22513;51.222;6.480;2023-11-22T12:33:18;1.30;;;1.17;;
36497;SDS011;22513;51.222;6.480;2023-11-22T12:35:44;1.02;;;0.95;;
36497;SDS011;22513;51.222;6.480;2023-11-22T12:38:11;1.02;;;0.93;;
36497;SDS011;22513;51.222;6.480;2023-11-22T12:40:36;1.13;;;1.02;;
36497;SDS011;22513;51.222;6.480;2023-11-22T12:43:03;1.08;;;1.00;;
36497;SDS011;22513;51.222;6.480;2023-11-22T12:45:29;0.98;;;0.90;;
36497;SDS011;22513;51.222;6.480;2023-11-22T12:47:56;0.82;;;0.80;;
36497;SDS011;22513;51.222;6.480;2023-11-22T12:50:31;1.17;;;1.08;;
36497;SDS011;22513;51.222;6.480;2023-11-22T12:53:13;0.80;;;0.80;;
36497;SDS011;22513;51.222;6.480;2023-11-22T12:55:46;0.70;;;0.70;;
36497;SDS011;22513;51.222;6.480;2023-11-22T12:58:17;1.13;;;1.00;;
36497;SDS011;22513;51.222;6.480;2023-11-22T13:00:53;0.90;;;0.90;;
36497;SDS011;22513;51.222;6.480;2023-11-22T13:03:23;0.82;;;0.70;;
36497;SDS011;22513;51.222;6.480;2023-11-22T13:05:49;0.70;;;0.70;;
36497;SDS011;22513;51.222;6.480;2023-11-22T13:08:17;1.20;;;1.10;;
36497;SDS011;22513;51.222;6.480;2023-11-22T13:10:43;1.35;;;0.90;;
36497;SDS011;22513;51.222;6.480;2023-11-22T13:13:09;0.55;;;0.55;;
36497;SDS011;22513;51.222;6.480;2023-11-22T13:15:35;0.85;;;0.80;;
36497;SDS011;22513;51.222;6.480;2023-11-22T13:18:00;0.80;;;0.80;;
36497;SDS011;22513;51.222;6.480;2023-11-22T13:20:27;0.80;;;0.80;;
36497;SDS011;22513;51.222;6.480;2023-11-22T13:22:53;1.02;;;0.88;;
36497;SDS011;22513;51.222;6.480;2023-11-22T13:25:20;0.73;;;0.73;;
36497;SDS011;22513;51.222;6.480;2023-11-22T13:27:48;1.47;;;0.70;;
36497;SDS011;22513;51.222;6.480;2023-11-22T13:30:17;0.80;;;0.80;;
36497;SDS011;22513;51.222;6.480;2023-11-22T13:32:44;0.70;;;0.70;;
36497;SDS011;22513;51.222;6.480;2023-11-22T13:35:10;1.15;;;1.05;;
36497;SDS011;22513;51.222;6.480;2023-11-22T13:37:40;0.70;;;0.70;;
36497;SDS011;22513;51.222;6.480;2023-11-22T13:40:08;0.65;;;0.65;;
36497;SDS011;22513;51.222;6.480;2023-11-22T13:42:41;0.65;;;0.65;;
36497;SDS011;22513;51.222;6.480;2023-11-22T13:45:10;2.00;;;0.88;;
36497;SDS011;22513;51.222;6.480;2023-11-22T13:47:40;0.90;;;0.90;;
36497;SDS011;22513;51.222;6.480;2023-11-22T13:50:08;1.27;;;1.10;;
36497;SDS011;22513;51.222;6.480;2023-11-22T13:52:34;1.25;;;1.02;;
36497;SDS011;22513;51.222;6.480;2023-11-22T13:55:00;0.73;;;0.73;;
36497;SDS011;22513;51.222;6.480;2023-11-22T13:57:26;0.70;;;0.70;;
36497;SDS011;22513;51.222;6.480;2023-11-22T13:59:52;1.00;;;0.90;;
36497;SDS011;22513;51.222;6.480;2023-11-22T14:02:19;1.00;;;0.80;;
36497;SDS011;22513;51.222;6.480;2023-11-22T14:04:44;0.90;;;0.90;;
36497;SDS011;22513;51.222;6.480;2023-11-22T14:07:11;1.02;;;0.93;;
36497;SDS011;22513;51.222;6.480;2023-11-22T14:09:36;1.90;;;0.90;;
36497;SDS011;22513;51.222;6.480;2023-11-22T14:12:02;1.20;;;0.90;;
36497;SDS011;22513;51.222;6.480;2023-11-22T14:14:28;1.17;;;0.90;;
36497;SDS011;22513;51.222;6.480;2023-11-22T14:16:53;0.88;;;0.75;;
36497;SDS011;22513;51.222;6.480;2023-11-22T14:19:19;0.60;;;0.60;;
36497;SDS011;22513;51.222;6.480;2023-11-22T14:21:45;0.65;;;0.65;;
36497;SDS011;22513;51.222;6.480;2023-11-22T14:24:10;1.10;;;0.90;;
36497;SDS011;22513;51.222;6.480;2023-11-22T14:26:37;0.77;;;0.77;;
36497;SDS011;22513;51.222;6.480;2023-11-22T14:29:03;0.60;;;0.60;;
36497;SDS011;22513;51.222;6.480;2023-11-22T14:31:30;0.50;;;0.50;;
36497;SDS011;22513;51.222;6.480;2023-11-22T14:33:56;0.73;;;0.60;;
36497;SDS011;22513;51.222;6.480;2023-11-22T14:36:22;0.60;;;0.60;;
36497;SDS011;22513;51.222;6.480;2023-11-22T14:38:49;0.65;;;0.65;;
36497;SDS011;22513;51.222;6.480;2023-11-22T14:41:19;0.50;;;0.50;;
36497;SDS011;22513;51.222;6.480;2023-11-22T14:43:45;0.60;;;0.60;;
36497;SDS011;22513;51.222;6.480;2023-11-22T14:46:11;0.60;;;0.60;;
36497;SDS011;22513;51.222;6.480;2023-11-22T14:48:36;0.70;;;0.70;;
36497;SDS011;22513;51.222;6.480;2023-11-22T14:51:02;0.40;;;0.40;;
36497;SDS011;22513;51.222;6.480;2023-11-22T14:53:29;0.65;;;0.65;;
36497;SDS011;22513;51.222;6.480;2023-11-22T14:55:55;1.02;;;0.77;;
36497;SDS011;22513;51.222;6.480;2023-11-22T14:58:20;0.60;;;0.60;;
36497;SDS011;22513;51.222;6.480;2023-11-22T15:00:46;0.70;;;0.70;;
36497;SDS011;22513;51.222;6.480;2023-11-22T15:03:11;0.65;;;0.65;;
36497;SDS011;22513;51.222;6.480;2023-11-22T15:05:37;0.50;;;0.50;;
36497;SDS011;22513;51.222;6.480;2023-11-22T15:08:03;0.60;;;0.60;;